Flight Track Log - Related Links

Times and Time Zones

All times are in EST time to prevent confusion due to time zone crossing. See the N589H flight status page for this flight to view local times or setup timezone preferences in your user account.

Time Position Orientation Groundspeed Altitude Reporting Facility
EST Latitude Longitude Course Direction KTS MPH feet Rate Location/Type
Thu 09:03:39 AM 27.8833 -82.6833 204° Southwest 175 201 500  Level Tampa TRACON
Thu 09:04:27 AM 27.8500 -82.7000 204° Southwest 184 212 1,600 1,409 Climbing Tampa TRACON
Thu 09:05:34 AM 27.7833 -82.7000 180° South 208 239 3,200 1,353 Climbing Tampa TRACON
Thu 09:06:40 AM 27.7333 -82.6833 164° South 211 243 4,600 1,440 Climbing Tampa TRACON
Thu 09:08:29 AM 27.6300 -82.6325 156° South 227 261 7,400 1,509 Climbing Miami Center
Thu 09:09:31 AM 27.5811 -82.5867 140° Southeast 233 268 8,900 1,500 Climbing Miami Center
Thu 09:10:33 AM 27.5342 -82.5378 137° Southeast 233 268 10,500 1,512 Climbing Miami Center
Thu 09:11:34 AM 27.4853 -82.4881 138° Southeast 233 268 12,000 1,512 Climbing Miami Center
Thu 09:12:36 AM 27.4358 -82.4367 137° Southeast 240 276 13,600 1,500 Climbing Miami Center
Thu 09:13:38 AM 27.3953 -82.3733 126° Southeast 260 299 15,100 1,500 Climbing Miami Center
Thu 09:14:52 AM 27.3619 -82.2800 112° Southeast 272 313 17,000 1,676 Climbing Miami Center
Thu 09:15:54 AM 27.3267 -82.1822 112° Southeast 272 313 18,900 882 Climbing Miami Center
Thu 09:17:08 AM 27.2936 -82.0908 112° Southeast 297 342 19,000 44 Climbing Miami Center
Thu 09:18:10 AM 27.2481 -81.9617 112° Southeast 342 394 19,000  Level Miami Center
Thu 09:19:12 AM 27.2139 -81.8692 113° Southeast 341 392 19,000  Level Miami Center
Thu 09:20:14 AM 27.1772 -81.7686 112° Southeast 334 384 19,000  Level Miami Center
Thu 09:21:16 AM 27.1428 -81.6714 112° Southeast 327 376 19,000  Level Miami Center
Thu 09:22:18 AM 27.1083 -81.5778 112° Southeast 314 361 19,000 -400 Level Miami Center
Thu 09:23:31 AM 27.0733 -81.4806 112° Southeast 316 364 18,100 -838 Descending Miami Center
Thu 09:24:34 AM 27.0375 -81.3811 112° Southeast 326 375 17,100 -1,065 Descending Miami Center
Thu 09:25:35 AM 26.9944 -81.2678 113° Southeast 328 377 15,900 -1,220 Descending Miami Center
Thu 09:26:37 AM 26.9669 -81.1919 112° Southeast 322 371 14,600 -1,708 Descending Miami Center
Thu 09:27:52 AM 26.9264 -81.0822 112° Southeast 306 352 12,000 -2,190 Descending Miami Center
Thu 09:28:54 AM 26.8892 -80.9778 112° Southeast 294 338 9,600 -2,146 Descending Miami Center
Thu 09:29:55 AM 26.8586 -80.8939 112° Southeast 284 327 7,600 -1,268 Descending Miami Center
Thu 09:30:57 AM 26.8275 -80.8125 113° Southeast 274 315 7,000 -290 Descending Miami Center
Thu 09:31:59 AM 26.8097 -80.7231 103° East 289 333 7,000 -339 Level Miami Center
Thu 09:33:01 AM 26.8011 -80.6364 96° East 292 336 6,300 -871 Descending Miami Center
Thu 09:34:03 AM 26.7872 -80.5472 100° East 282 325 5,200 -1,016 Descending Miami Center
Thu 09:35:05 AM 26.7536 -80.4700 116° Southeast 265 305 4,200 -871 Descending Miami Center
Thu 09:36:07 AM 26.7339 -80.4181 113° Southeast 248 285 3,400 -968 Descending Miami Center
Thu 09:37:09 AM 26.7000 -80.3403 116° Southeast 233 268 2,200 -677 Descending Miami Center
Thu 09:38:11 AM 26.6917 -80.2728 98° East 221 254 2,000 -97 Descending Miami Center
Thu 09:39:13 AM 26.6861 -80.2081 95° East 188 216 2,000 -97 Level Miami Center
Thu 09:40:15 AM 26.6875 -80.1731 87° East 173 199 1,800 -194 Descending Miami Center
Thu 09:42:00 AM 26.6832 -80.0956 101° East  Level Estimated
Thu 09:49:00 AM 26.6832 -80.0956 101° East  Level Estimated
Thu 09:50:00 AM 26.6832 -80.0956 101° East  Level Estimated

Login

Don't have an account? Register now (free) for customized features, flight alerts, and more!